createdAt,value
2022-09-02T00:01:24.422Z,16.20
2022-09-02T00:03:53.757Z,16.10
2022-09-02T00:06:21.518Z,16.00
2022-09-02T00:08:49.268Z,16.10
2022-09-02T00:11:23.725Z,16.10
2022-09-02T00:13:52.445Z,16.20
2022-09-02T00:16:20.581Z,16.20
2022-09-02T00:18:49.017Z,16.40
2022-09-02T00:21:17.415Z,16.50
2022-09-02T00:23:46.185Z,16.50
2022-09-02T00:26:14.803Z,16.50
2022-09-02T00:28:48.965Z,16.50
2022-09-02T00:31:18.692Z,16.60
2022-09-02T00:33:46.813Z,16.70
2022-09-02T00:36:14.702Z,16.70
2022-09-02T00:38:42.479Z,16.80
2022-09-02T00:41:13.163Z,16.80
2022-09-02T00:43:49.865Z,16.80
2022-09-02T00:46:21.467Z,16.70
2022-09-02T00:48:56.869Z,16.70
2022-09-02T00:51:25.481Z,16.60
2022-09-02T00:53:54.195Z,16.70
2022-09-02T00:56:24.772Z,16.60
2022-09-02T00:58:55.709Z,16.60
2022-09-02T01:01:24.194Z,16.50
2022-09-02T01:03:52.763Z,16.40
2022-09-02T01:06:25.060Z,16.40
2022-09-02T01:08:59.424Z,16.30
2022-09-02T01:11:32.459Z,15.70
2022-09-02T01:14:01.781Z,15.60
2022-09-02T01:16:35.482Z,15.70
2022-09-02T01:19:07.533Z,15.80
2022-09-02T01:21:35.993Z,15.90
2022-09-02T01:24:06.842Z,15.90
2022-09-02T01:26:34.684Z,16.00
2022-09-02T01:29:02.430Z,15.90
2022-09-02T01:31:30.234Z,15.80
2022-09-02T01:33:58.024Z,15.20
2022-09-02T01:36:26.079Z,15.10
2022-09-02T01:38:53.838Z,15.30
2022-09-02T01:41:22.921Z,15.40
2022-09-02T01:43:50.692Z,15.40
2022-09-02T01:46:18.999Z,15.30
2022-09-02T01:48:46.804Z,15.00
2022-09-02T01:51:18.556Z,15.20
2022-09-02T01:53:46.985Z,15.20
2022-09-02T01:56:14.877Z,15.20
2022-09-02T01:58:44.222Z,15.30
2022-09-02T02:01:12.385Z,15.30
2022-09-02T02:03:40.275Z,15.30
2022-09-02T02:06:11.034Z,15.20
2022-09-02T02:08:39.828Z,15.30
2022-09-02T02:11:08.787Z,15.10
2022-09-02T02:13:37.492Z,14.90
2022-09-02T02:16:06.809Z,15.00
2022-09-02T02:18:34.687Z,14.90
2022-09-02T02:21:02.514Z,15.00
2022-09-02T02:23:30.255Z,14.90
2022-09-02T02:25:58.119Z,14.90
2022-09-02T02:28:25.934Z,14.90
2022-09-02T02:30:54.048Z,15.00
2022-09-02T02:33:23.451Z,14.80
2022-09-02T02:35:58.335Z,14.80
2022-09-02T02:38:26.215Z,14.80
2022-09-02T02:40:56.296Z,15.00
2022-09-02T02:43:24.166Z,15.00
2022-09-02T02:45:52.082Z,15.20
2022-09-02T02:48:19.823Z,15.20
2022-09-02T02:50:49.004Z,15.20
2022-09-02T02:53:17.457Z,15.30
2022-09-02T02:55:49.830Z,15.40
2022-09-02T02:58:19.396Z,15.40
2022-09-02T03:00:47.363Z,15.50
2022-09-02T03:03:19.381Z,15.40
2022-09-02T03:05:49.596Z,15.50
2022-09-02T03:08:20.933Z,15.40
2022-09-02T03:10:51.458Z,15.40
2022-09-02T03:13:19.731Z,15.40
2022-09-02T03:15:47.502Z,15.40
2022-09-02T03:18:15.782Z,15.40
2022-09-02T03:20:43.954Z,15.40
2022-09-02T03:23:13.410Z,15.50
2022-09-02T03:25:44.309Z,15.40
2022-09-02T03:28:12.940Z,15.40
2022-09-02T03:30:41.543Z,15.40
2022-09-02T03:33:09.774Z,15.40
2022-09-02T03:35:40.694Z,15.30
2022-09-02T03:38:09.341Z,15.20
2022-09-02T03:40:39.351Z,15.20
2022-09-02T03:43:07.268Z,15.20
2022-09-02T03:45:35.139Z,15.30
2022-09-02T03:48:03.558Z,15.30
2022-09-02T03:50:33.076Z,15.20
2022-09-02T03:53:01.556Z,15.10
2022-09-02T03:55:30.119Z,15.10
2022-09-02T03:57:59.876Z,15.10
2022-09-02T04:00:30.393Z,15.20
2022-09-02T04:02:58.916Z,15.00
2022-09-02T04:05:26.706Z,15.00
2022-09-02T04:07:55.160Z,15.00
2022-09-02T04:10:23.621Z,14.90
2022-09-02T04:12:52.523Z,14.90
2022-09-02T04:15:22.653Z,14.80
2022-09-02T04:17:50.403Z,14.70
2022-09-02T04:20:18.125Z,14.80
2022-09-02T04:22:46.020Z,14.80
2022-09-02T04:25:13.769Z,14.80
2022-09-02T04:27:41.930Z,14.80
2022-09-02T04:30:10.737Z,14.80
2022-09-02T04:32:40.917Z,14.80
2022-09-02T04:35:09.607Z,14.40
2022-09-02T04:37:37.384Z,14.40
2022-09-02T04:40:05.878Z,14.40
2022-09-02T04:42:34.383Z,14.50
2022-09-02T04:45:02.386Z,14.70
2022-09-02T04:47:30.755Z,14.60
2022-09-02T04:49:59.839Z,14.60
2022-09-02T04:52:27.647Z,14.50
2022-09-02T04:54:55.489Z,14.50
2022-09-02T04:57:23.242Z,14.60
2022-09-02T04:59:50.979Z,14.70
2022-09-02T05:02:20.220Z,14.60
2022-09-02T05:04:48.106Z,14.50
2022-09-02T05:07:17.209Z,14.40
2022-09-02T05:09:45.353Z,14.50
2022-09-02T05:12:14.559Z,14.60
2022-09-02T05:14:43.623Z,14.60
2022-09-02T05:17:11.370Z,14.50
2022-09-02T05:19:39.098Z,14.60
2022-09-02T05:22:06.871Z,14.50
2022-09-02T05:24:35.972Z,14.60
2022-09-02T05:27:05.164Z,14.50
2022-09-02T05:29:32.906Z,14.30
2022-09-02T05:32:00.676Z,14.40
2022-09-02T05:34:28.842Z,14.40
2022-09-02T05:36:56.951Z,14.50
2022-09-02T05:39:24.739Z,14.50
2022-09-02T05:41:53.821Z,14.60
2022-09-02T05:44:21.560Z,14.50
2022-09-02T05:46:49.511Z,14.50
2022-09-02T05:49:18.222Z,14.60
2022-09-02T05:51:48.077Z,14.70
2022-09-02T05:54:18.851Z,14.60
2022-09-02T05:56:49.068Z,14.50
2022-09-02T05:59:18.925Z,14.60
2022-09-02T06:01:46.853Z,14.70
2022-09-02T06:04:14.786Z,14.70
2022-09-02T06:06:43.275Z,14.80
2022-09-02T06:09:14.686Z,15.00
2022-09-02T06:11:44.616Z,15.10
2022-09-02T06:14:13.916Z,15.20
2022-09-02T06:16:43.650Z,15.40
2022-09-02T06:19:12.855Z,15.40
2022-09-02T06:21:42.851Z,15.50
2022-09-02T06:24:12.759Z,15.60
2022-09-02T06:26:41.805Z,15.60
2022-09-02T06:29:11.227Z,15.70
2022-09-02T06:31:43.902Z,16.00
2022-09-02T06:34:14.104Z,16.00
2022-09-02T06:36:43.686Z,15.90
2022-09-02T06:39:13.599Z,16.00
2022-09-02T06:41:43.069Z,16.00
2022-09-02T06:44:12.634Z,16.40
2022-09-02T06:46:47.721Z,16.50
2022-09-02T06:49:16.783Z,16.60
2022-09-02T06:51:46.321Z,16.70
2022-09-02T06:54:16.462Z,16.90
2022-09-02T06:56:49.209Z,17.00
2022-09-02T06:59:17.597Z,17.10
2022-09-02T07:01:47.972Z,17.20
2022-09-02T07:04:33.343Z,17.40
2022-09-02T07:07:01.100Z,17.70
2022-09-02T07:09:31.245Z,18.00
2022-09-02T07:12:04.281Z,18.30
2022-09-02T07:14:32.351Z,18.50
2022-09-02T07:17:01.468Z,18.60
2022-09-02T07:19:29.233Z,18.50
2022-09-02T07:21:56.971Z,18.70
2022-09-02T07:24:25.061Z,18.90
2022-09-02T07:26:55.370Z,19.10
2022-09-02T07:29:24.092Z,19.20
2022-09-02T07:31:52.164Z,19.50
2022-09-02T07:34:21.832Z,19.70
2022-09-02T07:36:49.711Z,19.70
2022-09-02T07:39:18.862Z,19.80
2022-09-02T07:41:49.065Z,19.90
2022-09-02T07:44:18.373Z,19.80
2022-09-02T07:46:46.909Z,19.80
2022-09-02T07:49:18.919Z,20.10
2022-09-02T07:51:51.997Z,20.20
2022-09-02T07:54:21.889Z,20.50
2022-09-02T07:56:50.114Z,20.60
2022-09-02T07:59:18.576Z,20.70
2022-09-02T08:01:48.224Z,21.00
2022-09-02T08:04:16.533Z,21.00
2022-09-02T08:06:44.374Z,21.20
2022-09-02T08:09:13.661Z,21.10
2022-09-02T08:11:44.308Z,21.00
2022-09-02T08:14:17.710Z,21.00
2022-09-02T08:16:46.430Z,21.10
2022-09-02T08:19:15.905Z,21.50
2022-09-02T08:21:43.743Z,21.60
2022-09-02T08:24:12.838Z,21.90
2022-09-02T08:26:40.606Z,21.90
2022-09-02T08:29:09.880Z,21.70
2022-09-02T08:31:38.633Z,21.70
2022-09-02T08:34:06.459Z,21.90
2022-09-02T08:36:34.283Z,22.00
2022-09-02T08:39:03.918Z,21.80
2022-09-02T08:41:40.459Z,22.10
2022-09-02T08:44:08.499Z,22.10
2022-09-02T08:46:36.695Z,22.20
2022-09-02T08:49:08.182Z,22.60
2022-09-02T08:51:39.049Z,22.80
2022-09-02T08:54:11.155Z,22.80
2022-09-02T08:56:42.091Z,22.70
2022-09-02T08:59:13.013Z,22.90
2022-09-02T09:01:47.765Z,22.90
2022-09-02T09:04:25.053Z,23.00
2022-09-02T09:07:10.652Z,23.00
2022-09-02T09:09:49.123Z,23.00
2022-09-02T09:12:30.617Z,23.10
2022-09-02T09:15:07.169Z,23.30
2022-09-02T09:17:44.121Z,23.40
2022-09-02T09:20:19.567Z,23.40
2022-09-02T09:22:49.604Z,23.70
2022-09-02T09:25:18.581Z,23.90
2022-09-02T09:27:47.685Z,24.10
2022-09-02T09:30:15.932Z,24.20
2022-09-02T09:32:47.471Z,24.50
2022-09-02T09:35:16.929Z,24.60
2022-09-02T09:37:47.913Z,24.50
2022-09-02T09:40:28.275Z,24.60
2022-09-02T09:45:34.671Z,24.60
2022-09-02T09:48:22.763Z,24.90
2022-09-02T09:51:13.397Z,24.90
2022-09-02T09:53:41.396Z,25.00
2022-09-02T09:56:24.964Z,25.20
2022-09-02T09:58:52.957Z,25.30
2022-09-02T10:01:23.433Z,25.30
2022-09-02T10:03:53.511Z,25.30
2022-09-02T10:06:26.001Z,25.50
2022-09-02T10:08:56.273Z,25.30
2022-09-02T10:11:26.647Z,25.20
2022-09-02T10:13:59.846Z,25.30
2022-09-02T10:16:47.313Z,25.20
2022-09-02T10:19:22.243Z,25.20
2022-09-02T10:22:10.819Z,25.40
2022-09-02T10:24:56.791Z,25.50
2022-09-02T10:27:37.707Z,25.70
2022-09-02T10:30:08.945Z,25.90
2022-09-02T10:33:01.682Z,26.00
2022-09-02T10:35:36.555Z,26.00
2022-09-02T10:38:13.985Z,26.00
2022-09-02T10:40:49.635Z,25.90
2022-09-02T10:43:29.447Z,25.70
2022-09-02T10:46:00.818Z,25.70
2022-09-02T10:48:49.948Z,26.00
2022-09-02T10:51:25.369Z,26.10
2022-09-02T10:54:09.597Z,25.90
2022-09-02T10:56:42.619Z,26.00
2022-09-02T10:59:15.504Z,26.30
2022-09-02T11:01:49.372Z,26.60
2022-09-02T11:04:25.316Z,26.80
2022-09-02T11:07:02.894Z,26.70
2022-09-02T11:09:37.916Z,26.60
2022-09-02T11:12:10.978Z,26.60
2022-09-02T11:14:45.979Z,26.60
2022-09-02T11:17:23.160Z,26.70
2022-09-02T11:19:56.523Z,26.80
2022-09-02T11:22:29.163Z,26.60
2022-09-02T11:25:04.254Z,26.70
2022-09-02T11:27:42.657Z,26.70
2022-09-02T11:30:16.142Z,26.80
2022-09-02T11:32:51.724Z,27.10
2022-09-02T11:35:27.761Z,27.20
2022-09-02T11:38:00.800Z,27.30
2022-09-02T11:40:36.005Z,27.30
2022-09-02T11:43:13.695Z,27.20
2022-09-02T11:46:03.855Z,27.50
2022-09-02T11:49:05.882Z,27.70
2022-09-02T11:52:01.876Z,27.50
2022-09-02T11:54:35.878Z,27.50
2022-09-02T11:57:07.543Z,27.50
2022-09-02T12:00:07.368Z,27.60
2022-09-02T12:02:43.221Z,27.60
2022-09-02T12:05:49.816Z,27.40
2022-09-02T12:09:00.028Z,27.50
2022-09-02T12:11:41.640Z,26.90
2022-09-02T12:14:13.624Z,27.00
2022-09-02T12:16:46.208Z,27.10
2022-09-02T12:19:29.244Z,27.10
2022-09-02T12:22:32.674Z,26.80
2022-09-02T12:25:03.379Z,26.80
2022-09-02T12:27:36.668Z,26.50
2022-09-02T12:30:09.238Z,26.40
2022-09-02T12:33:05.396Z,26.20
2022-09-02T12:35:57.645Z,26.30
2022-09-02T12:38:38.632Z,26.60
2022-09-02T12:41:18.419Z,26.60
2022-09-02T12:43:58.805Z,26.60
2022-09-02T12:46:44.786Z,26.90
2022-09-02T12:49:26.347Z,27.00
2022-09-02T12:51:57.141Z,26.90
2022-09-02T12:54:35.533Z,26.70
2022-09-02T12:57:04.016Z,26.10
2022-09-02T12:59:34.360Z,26.20
2022-09-02T13:02:30.576Z,26.30
2022-09-02T13:05:15.848Z,26.40
2022-09-02T13:08:08.706Z,26.50
2022-09-02T13:10:57.521Z,26.40
2022-09-02T13:13:54.641Z,26.30
2022-09-02T13:16:38.306Z,26.30
2022-09-02T13:19:21.707Z,26.20
2022-09-02T13:22:13.412Z,25.90
2022-09-02T13:25:08.514Z,25.90
2022-09-02T13:28:07.772Z,26.10
2022-09-02T13:30:58.703Z,26.10
2022-09-02T13:33:27.768Z,25.90
2022-09-02T13:35:59.377Z,25.90
2022-09-02T13:38:28.755Z,25.90
2022-09-02T13:40:56.802Z,25.80
2022-09-02T13:43:26.996Z,25.70
2022-09-02T13:45:59.887Z,26.00
2022-09-02T13:48:29.825Z,26.70
2022-09-02T13:51:03.494Z,27.10
2022-09-02T13:54:18.288Z,27.40
2022-09-02T13:56:27.303Z,27.40
2022-09-02T13:58:57.009Z,27.30
2022-09-02T14:01:29.789Z,27.30
2022-09-02T14:03:59.878Z,27.40
2022-09-02T14:06:33.164Z,27.60
2022-09-02T14:09:03.640Z,27.50
2022-09-02T14:11:41.535Z,27.60
2022-09-02T14:14:10.366Z,27.50
2022-09-02T14:16:38.381Z,27.60
2022-09-02T14:19:14.399Z,27.40
2022-09-02T14:21:50.731Z,27.10
2022-09-02T14:24:23.124Z,26.90
2022-09-02T14:26:53.895Z,26.90
2022-09-02T14:29:22.901Z,27.00
2022-09-02T14:32:09.702Z,26.90
2022-09-02T14:34:39.603Z,26.90
2022-09-02T14:37:26.910Z,26.70
2022-09-02T14:40:09.778Z,26.80
2022-09-02T14:42:48.740Z,27.20
2022-09-02T14:45:26.428Z,27.50
2022-09-02T14:47:54.700Z,27.60
2022-09-02T14:50:28.339Z,27.60
2022-09-02T14:53:03.659Z,27.60
2022-09-02T14:55:48.342Z,27.40
2022-09-02T14:58:17.302Z,27.30
2022-09-02T15:00:47.318Z,27.10
2022-09-02T15:03:17.104Z,26.90
2022-09-02T15:05:45.354Z,27.00
2022-09-02T15:08:15.490Z,26.90
2022-09-02T15:10:44.896Z,26.90
2022-09-02T15:13:14.792Z,26.60
2022-09-02T15:15:42.901Z,26.40
2022-09-02T15:18:11.509Z,26.40
2022-09-02T15:20:39.274Z,26.40
2022-09-02T15:23:07.312Z,26.40
2022-09-02T15:25:36.494Z,26.30
2022-09-02T15:28:04.537Z,26.20
2022-09-02T15:30:34.693Z,25.90
2022-09-02T15:33:04.347Z,26.00
2022-09-02T15:35:33.336Z,26.20
2022-09-02T15:38:02.888Z,26.30
2022-09-02T15:40:32.215Z,26.30
2022-09-02T15:43:01.492Z,26.30
2022-09-02T15:45:29.249Z,26.30
2022-09-02T15:47:59.324Z,26.30
2022-09-02T15:50:28.341Z,26.30
2022-09-02T15:52:56.611Z,26.30
2022-09-02T15:55:29.553Z,26.40
2022-09-02T15:57:58.325Z,26.30
2022-09-02T16:00:32.160Z,26.30
2022-09-02T16:03:02.517Z,26.00
2022-09-02T16:05:32.354Z,26.20
2022-09-02T16:08:00.292Z,26.20
2022-09-02T16:10:29.963Z,26.30
2022-09-02T16:13:00.577Z,26.10
2022-09-02T16:15:29.953Z,25.90
2022-09-02T16:18:02.066Z,25.70
2022-09-02T16:20:29.802Z,25.50
2022-09-02T16:22:57.549Z,25.50
2022-09-02T16:25:26.192Z,25.30
2022-09-02T16:27:54.925Z,25.00
2022-09-02T16:30:23.565Z,24.90
2022-09-02T16:32:52.757Z,25.00
2022-09-02T16:35:20.574Z,25.00
2022-09-02T16:37:48.537Z,24.80
2022-09-02T16:40:21.287Z,24.70
2022-09-02T16:42:49.378Z,24.50
2022-09-02T16:45:17.376Z,24.40
2022-09-02T16:47:45.193Z,24.40
2022-09-02T16:50:14.364Z,24.60
2022-09-02T16:52:42.115Z,24.70
2022-09-02T16:55:10.578Z,24.50
2022-09-02T16:57:38.323Z,24.40
2022-09-02T17:00:07.459Z,24.30
2022-09-02T17:02:35.569Z,24.40
2022-09-02T17:05:03.337Z,24.30
2022-09-02T17:07:32.455Z,24.20
2022-09-02T17:10:00.186Z,24.10
2022-09-02T17:12:27.938Z,24.00
2022-09-02T17:14:55.658Z,23.90
2022-09-02T17:17:23.391Z,23.80
2022-09-02T17:19:51.173Z,23.60
2022-09-02T17:22:18.977Z,23.70
2022-09-02T17:24:53.080Z,23.70
2022-09-02T17:27:21.622Z,23.60
2022-09-02T17:29:50.355Z,23.50
2022-09-02T17:32:18.601Z,23.60
2022-09-02T17:34:46.677Z,23.60
2022-09-02T17:37:14.451Z,23.40
2022-09-02T17:39:42.268Z,23.40
2022-09-02T17:42:10.470Z,23.40
2022-09-02T17:44:40.128Z,23.50
2022-09-02T17:47:10.388Z,23.40
2022-09-02T17:49:41.940Z,23.10
2022-09-02T17:52:10.238Z,23.00
2022-09-02T17:54:40.137Z,23.10
2022-09-02T17:57:23.651Z,23.30
2022-09-02T18:00:07.754Z,23.30
2022-09-02T18:02:56.802Z,23.10
2022-09-02T18:05:32.485Z,23.00
2022-09-02T18:08:08.597Z,22.80
2022-09-02T18:10:39.590Z,22.60
2022-09-02T18:13:13.586Z,22.70
2022-09-02T18:15:51.997Z,22.60
2022-09-02T18:18:21.720Z,22.40
2022-09-02T18:20:56.696Z,22.20
2022-09-02T18:23:37.100Z,22.30
2022-09-02T18:26:13.961Z,22.40
2022-09-02T18:28:52.163Z,22.40
2022-09-02T18:31:34.411Z,22.40
2022-09-02T18:34:38.655Z,22.30
2022-09-02T18:37:13.532Z,22.20
2022-09-02T18:39:54.738Z,22.30
2022-09-02T18:42:37.222Z,22.30
2022-09-02T18:45:17.261Z,22.20
2022-09-02T18:47:53.860Z,22.00
2022-09-02T18:50:47.208Z,22.00
2022-09-02T18:53:16.641Z,22.00
2022-09-02T18:55:45.468Z,22.20
2022-09-02T18:58:30.740Z,22.30
2022-09-02T19:01:06.037Z,22.30
2022-09-02T19:03:35.812Z,22.30
2022-09-02T19:06:07.400Z,22.30
2022-09-02T19:08:37.985Z,22.20
2022-09-02T19:11:09.007Z,22.10
2022-09-02T19:13:45.991Z,22.10
2022-09-02T19:16:17.275Z,22.20
2022-09-02T19:18:45.304Z,22.30
2022-09-02T19:21:18.773Z,22.20
2022-09-02T19:23:47.772Z,22.20
2022-09-02T19:26:15.679Z,22.20
2022-09-02T19:28:45.363Z,22.20
2022-09-02T19:31:20.613Z,22.00
2022-09-02T19:33:54.174Z,22.00
2022-09-02T19:36:23.597Z,21.90
2022-09-02T19:38:54.139Z,21.70
2022-09-02T19:41:23.937Z,21.80
2022-09-02T19:43:51.730Z,21.70
2022-09-02T19:46:55.765Z,21.70
2022-09-02T19:49:08.736Z,21.50
2022-09-02T19:51:36.545Z,21.50
2022-09-02T19:54:04.565Z,21.40
2022-09-02T19:56:32.439Z,21.40
2022-09-02T19:59:00.834Z,21.30
2022-09-02T20:01:30.621Z,21.30
2022-09-02T20:03:58.392Z,21.20
2022-09-02T20:06:26.214Z,21.10
2022-09-02T20:08:53.969Z,21.10
2022-09-02T20:11:21.724Z,21.10
2022-09-02T20:13:50.312Z,21.10
2022-09-02T20:16:21.721Z,20.90
2022-09-02T20:18:51.837Z,21.00
2022-09-02T20:21:22.204Z,21.00
2022-09-02T20:23:50.037Z,21.00
2022-09-02T20:26:34.209Z,20.90
2022-09-02T20:29:16.464Z,20.80
2022-09-02T20:31:57.856Z,20.80
2022-09-02T20:34:43.086Z,20.80
2022-09-02T20:37:26.400Z,20.80
2022-09-02T20:40:12.403Z,20.70
2022-09-02T20:42:54.846Z,20.50
2022-09-02T20:45:27.452Z,20.50
2022-09-02T20:48:06.003Z,20.50
2022-09-02T20:50:46.368Z,20.40
2022-09-02T20:53:36.646Z,20.30
2022-09-02T20:56:12.794Z,20.20
2022-09-02T20:58:45.363Z,20.10
2022-09-02T21:01:18.988Z,20.10
2022-09-02T21:03:51.872Z,20.10
2022-09-02T21:06:25.055Z,20.10
2022-09-02T21:09:01.573Z,20.10
2022-09-02T21:11:38.740Z,20.10
2022-09-02T21:14:12.046Z,20.10
2022-09-02T21:16:43.906Z,20.10
2022-09-02T21:19:18.343Z,20.10
2022-09-02T21:21:53.746Z,19.90
2022-09-02T21:24:25.616Z,19.90
2022-09-02T21:26:59.763Z,20.00
2022-09-02T21:29:31.270Z,20.00
2022-09-02T21:32:05.621Z,19.80
2022-09-02T21:34:37.189Z,19.80
2022-09-02T21:37:09.442Z,19.50
2022-09-02T21:39:43.243Z,19.50
2022-09-02T21:42:23.395Z,19.50
2022-09-02T21:45:06.272Z,19.50
2022-09-02T21:47:39.516Z,19.40
2022-09-02T21:50:11.785Z,19.40
2022-09-02T21:52:56.914Z,19.20
2022-09-02T21:55:40.095Z,19.10
2022-09-02T21:58:21.079Z,19.10
2022-09-02T22:00:54.090Z,19.10
2022-09-02T22:03:37.042Z,19.20
2022-09-02T22:06:10.197Z,19.20
2022-09-02T22:08:47.035Z,19.20
2022-09-02T22:11:22.200Z,19.10
2022-09-02T22:13:50.371Z,19.10
2022-09-02T22:16:27.144Z,19.10
2022-09-02T22:19:02.344Z,19.00
2022-09-02T22:21:35.646Z,19.10
2022-09-02T22:24:06.146Z,19.10
2022-09-02T22:26:41.802Z,19.00
2022-09-02T22:29:18.020Z,18.90
2022-09-02T22:31:50.314Z,18.90
2022-09-02T22:34:20.236Z,18.90
2022-09-02T22:36:57.493Z,18.70
2022-09-02T22:39:33.922Z,18.70
2022-09-02T22:42:09.285Z,18.60
2022-09-02T22:45:05.533Z,18.70
2022-09-02T22:47:53.454Z,18.60
2022-09-02T22:50:44.240Z,18.70
2022-09-02T22:53:12.925Z,18.60
2022-09-02T22:55:51.730Z,18.20
2022-09-02T22:58:30.806Z,18.10
2022-09-02T23:01:07.631Z,18.00
2022-09-02T23:03:42.906Z,17.80
2022-09-02T23:06:19.846Z,17.80
2022-09-02T23:08:48.853Z,17.70
2022-09-02T23:11:28.407Z,17.70
2022-09-02T23:14:09.988Z,17.80
2022-09-02T23:17:23.341Z,17.90
2022-09-02T23:20:08.028Z,17.90
2022-09-02T23:22:59.222Z,17.90
2022-09-02T23:25:47.556Z,17.80
2022-09-02T23:28:19.376Z,17.70
2022-09-02T23:31:00.987Z,17.70
2022-09-02T23:33:39.590Z,17.60
2022-09-02T23:36:15.817Z,17.60
2022-09-02T23:39:11.491Z,17.60
2022-09-02T23:41:40.556Z,17.50
2022-09-02T23:44:12.341Z,17.40
2022-09-02T23:46:49.719Z,17.30
2022-09-02T23:49:27.463Z,17.30
2022-09-02T23:52:02.443Z,17.20
2022-09-02T23:54:50.966Z,17.00
2022-09-02T23:57:38.710Z,17.10
